Latest Weather Observations for Mornington Island Airport

IDQ60801

Issued at 12:02 pm EST Tuesday 30 November 2021 (issued every 10 minutes, with the page automatically refreshed every 10 minutes)

About weather observations | Map of weather stations | Latest weather observations for QLD | Other Formats
Station Details ID: 029182 Name: MORNINGTON ISLAND AIRPORT Lat: -16.66 Lon: 139.17 Height: 9.52 m
Data from the previous 72 hours. | See also: Recent months at Mornington Island Airport
Date/Time
EST
Temp
°C
App
Temp
°C
Dew
Point
°C
Rel
Hum
%
Delta-T
°C
Wind Press
QNH
hPa
Press
MSL
hPa
Rain since
9am
mm
Dir  Spd
km/h
Gust
km/h
Spd
kts
Gust
kts
30/12:00pm 31.7 35.8 24.6 66 5.0 W 11 13 6 7 1009.1 1009.0 0.0
30/11:30am 30.9 35.3 25.0 71 4.2 SW 11 17 6 9 1009.2 1009.1 0.0
30/11:00am 30.9 35.6 25.5 73 3.8 WSW 11 15 6 8 1009.2 1009.1 0.0
30/10:30am 31.3 - - - - WSW 13 17 7 9 1009.6 1009.5 0.0
30/10:00am 31.4 35.3 24.3 66 5.0 W 11 17 6 9 1009.7 1009.6 0.0
30/09:30am 31.4 35.7 25.5 71 4.2 W 13 15 7 8 1009.9 1009.8 0.0
30/09:00am 31.3 35.6 24.9 69 4.5 W 11 15 6 8 1009.9 1009.8 0.0
30/08:30am 31.0 35.7 24.9 70 4.3 WNW 9 13 5 7 1009.7 1009.6 0.0
30/08:00am 29.4 34.2 24.5 75 3.4 NW 7 9 4 5 1009.6 1009.5 0.0
30/07:30am 29.5 34.4 24.6 75 3.4 NW 7 11 4 6 1009.4 1009.3 0.0
30/07:00am 29.6 35.5 24.7 75 3.4 NW 2 9 1 5 1009.0 1008.9 0.0
30/06:30am 28.1 33.5 25.1 84 2.1 N 6 7 3 4 1008.6 1008.5 0.0
30/06:00am 28.0 33.2 24.8 83 2.2 N 6 7 3 4 1007.8 1007.7 0.0
30/05:30am 27.8 32.9 24.6 83 2.2 N 6 9 3 5 1007.4 1007.3 0.0
30/05:00am 28.1 33.2 24.9 83 2.2 N 7 11 4 6 1007.3 1007.2 0.0
30/04:30am 27.6 32.9 25.0 86 1.8 N 6 11 3 6 1007.2 1007.1 0.0
30/04:00am 27.7 33.1 25.1 86 1.8 N 6 7 3 4 1007.3 1007.2 0.0
30/03:30am 27.8 33.2 25.2 86 1.8 N 6 11 3 6 1007.4 1007.3 0.0
30/03:00am 28.4 33.0 25.4 84 2.1 NNW 11 15 6 8 1007.1 1007.0 0.0
30/02:30am 27.9 32.8 25.3 86 1.8 N 9 13 5 7 1007.1 1007.0 0.0
30/02:00am 27.8 32.9 25.0 85 2.0 N 7 9 4 5 1007.4 1007.3 0.0
30/01:30am 28.1 33.2 25.5 86 1.8 N 9 11 5 6 1007.6 1007.5 0.0
30/01:00am 28.0 33.4 25.4 86 1.8 N 7 9 4 5 1008.2 1008.1 0.0
30/12:30am 28.1 34.2 25.1 84 2.1 N 2 7 1 4 1008.3 1008.2 0.0
30/12:00am 28.3 33.2 25.3 84 2.1 NNE 9 11 5 6 1008.3 1008.2 0.0
 
Date/Time
EST
Temp
°C
App
Temp
°C
Dew
Point
°C
Rel
Hum
%
Delta-T
°C
Wind Press
QNH
hPa
Press
MSL
hPa
Rain since
9am
mm
Dir  Spd
km/h
Gust
km/h
Spd
kts
Gust
kts
29/11:30pm 28.2 33.5 25.2 84 2.1 NNE 7 9 4 5 1008.4 1008.3 0.0
29/11:00pm 28.1 33.4 25.3 85 2.0 NNE 7 11 4 6 1008.5 1008.4 0.0
29/10:30pm 28.2 32.9 25.0 83 2.2 NNE 9 13 5 7 1008.3 1008.2 0.0
29/10:00pm 28.3 32.9 24.7 81 2.5 NNE 9 13 5 7 1008.3 1008.2 0.0
29/09:30pm 28.7 33.1 24.5 78 2.9 E 9 11 5 6 1008.3 1008.2 0.0
29/09:00pm 29.0 34.1 24.6 77 3.1 E 6 7 3 4 1008.2 1008.1 0.0
29/08:30pm 29.3 34.2 24.6 76 3.3 E 7 9 4 5 1008.1 1008.0 0.0
29/08:00pm 29.3 33.9 24.8 77 3.2 SE 9 11 5 6 1007.9 1007.8 0.0
29/07:30pm 29.5 34.0 24.6 75 3.4 SE 9 13 5 7 1007.3 1007.2 0.0
29/07:00pm 29.9 33.9 23.8 70 4.2 NNE 9 11 5 6 1006.8 1006.7 0.0
29/06:30pm 30.5 33.7 23.7 67 4.7 N 13 17 7 9 1006.4 1006.3 0.0
29/06:00pm 31.3 33.7 23.7 64 5.3 NNW 17 20 9 11 1005.8 1005.7 0.0
29/05:30pm 31.4 33.3 23.5 63 5.5 NW 19 24 10 13 1005.8 1005.7 0.0
29/05:00pm 31.8 33.8 23.6 62 5.7 NW 19 22 10 12 1006.0 1005.9 0.0
29/04:30pm 31.8 33.8 23.9 63 5.5 NW 20 24 11 13 1006.1 1006.0 0.0
29/04:00pm 32.2 34.4 24.8 65 5.2 NW 22 28 12 15 1006.2 1006.1 0.0
29/03:30pm 32.6 33.7 23.0 57 6.6 NW 22 28 12 15 1006.6 1006.5 0.0
29/03:00pm 32.4 34.1 24.7 64 5.4 NW 24 28 13 15 1006.8 1006.7 0.0
29/02:30pm 32.4 34.4 23.6 59 6.1 WNW 19 26 10 14 1007.0 1006.9 0.0
29/02:00pm 33.1 35.2 20.9 48 8.2 E 11 17 6 9 1007.5 1007.4 0.0
29/01:30pm 31.6 31.3 19.6 49 7.9 E 20 30 11 16 1008.1 1008.0 0.0
29/01:00pm 29.3 29.5 21.3 62 5.4 ESE 22 32 12 17 1008.6 1008.5 0.0
29/12:39pm 30.4 31.3 21.5 59 6.0 N 19 24 10 13 1008.6 1008.5 0.0
29/12:30pm 32.0 34.5 24.8 65 5.1 NW 20 28 11 15 1008.4 1008.3 0.0
29/12:26pm 31.7 33.4 24.0 63 5.4 NW 22 28 12 15 1008.4 1008.3 0.0
29/12:00pm 33.0 35.1 25.3 64 5.5 NNW 24 35 13 19 1008.5 1008.4 0.0
29/11:30am 33.4 34.8 24.8 60 6.1 NW 26 33 14 18 1008.7 1008.6 0.0
29/11:00am 33.0 34.1 23.0 55 6.9 NNW 22 30 12 16 1009.1 1009.0 0.0
29/10:30am 32.4 32.4 21.6 53 7.3 NNW 24 32 13 17 1009.2 1009.1 0.0
29/10:00am 31.7 33.7 24.6 66 5.0 NW 22 28 12 15 1009.5 1009.4 0.0
29/09:30am 31.7 32.9 20.6 51 7.4 WNW 15 19 8 10 1009.8 1009.7 0.0
29/09:00am 31.1 33.6 21.0 55 6.8 W 9 11 5 6 1009.8 1009.7 0.0
29/08:30am 30.4 33.0 22.0 60 5.7 W 11 13 6 7 1009.2 1009.1 0.0
29/08:00am 30.3 34.3 23.7 68 4.6 W 9 13 5 7 1008.9 1008.8 0.0
29/07:30am 29.6 33.7 24.0 72 3.9 WSW 9 13 5 7 1008.7 1008.6 0.0
29/07:00am 29.2 33.4 24.1 74 3.5 WSW 9 13 5 7 1008.5 1008.4 0.0
29/06:30am 28.5 32.7 24.1 77 3.0 WSW 9 13 5 7 1008.2 1008.1 0.0
29/06:00am 27.8 32.7 24.6 83 2.2 WSW 7 11 4 6 1007.8 1007.7 0.0
29/05:30am 27.1 32.4 24.9 88 1.5 SSW 6 7 3 4 1007.6 1007.5 0.0
29/05:00am 27.4 33.0 24.8 86 1.8 SSW 4 7 2 4 1007.7 1007.6 0.0
29/04:30am 27.2 33.1 24.1 83 2.1 CALM 0 0 0 0 1007.5 1007.4 0.0
29/04:00am 27.9 33.9 24.3 81 2.5 CALM 0 6 0 3 1007.4 1007.3 0.0
29/03:30am 28.2 33.0 24.4 80 2.6 NE 7 11 4 6 1007.2 1007.1 0.0
29/03:00am 28.6 33.0 24.4 78 2.9 NE 9 17 5 9 1007.3 1007.2 0.0
29/02:30am 28.8 33.0 24.8 79 2.8 WSW 11 19 6 10 1006.9 1006.8 0.0
29/02:00am 28.8 33.2 25.0 80 2.7 WSW 11 17 6 9 1007.2 1007.1 0.0
29/01:30am 28.9 32.2 24.5 77 3.1 W 15 22 8 12 1007.4 1007.3 0.0
29/01:00am 28.7 32.6 24.3 77 3.1 NW 11 15 6 8 1007.8 1007.7 0.0
29/12:30am 28.7 32.6 24.3 77 3.1 NW 11 15 6 8 1008.1 1008.0 0.0
29/12:00am 28.9 32.6 24.5 77 3.1 NW 13 15 7 8 1008.3 1008.2 0.0
 
Date/Time
EST
Temp
°C
App
Temp
°C
Dew
Point
°C
Rel
Hum
%
Delta-T
°C
Wind Press
QNH
hPa
Press
MSL
hPa
Rain since
9am
mm
Dir  Spd
km/h
Gust
km/h
Spd
kts
Gust
kts
28/11:30pm 28.9 32.6 24.5 77 3.1 NNW 13 15 7 8 1008.5 1008.4 0.0
28/11:00pm 28.6 32.7 23.9 75 3.3 NNW 9 13 5 7 1008.5 1008.4 0.0
28/10:30pm 27.8 31.7 23.0 75 3.3 N 7 11 4 6 1008.3 1008.2 0.0
28/10:00pm 27.8 31.6 22.7 74 3.5 NNE 7 9 4 5 1008.0 1007.9 0.0
28/09:30pm 28.3 32.1 22.8 72 3.7 NNE 7 9 4 5 1007.6 1007.5 0.0
28/09:00pm 28.8 32.6 22.8 70 4.1 N 7 9 4 5 1007.3 1007.2 0.0
28/08:30pm 29.3 32.2 22.5 67 4.6 NNE 11 15 6 8 1007.1 1007.0 0.0
28/08:00pm 29.6 32.0 22.3 65 5.0 NNE 13 15 7 8 1006.8 1006.7 0.0
28/07:30pm 30.3 32.5 21.9 60 5.7 NE 13 17 7 9 1006.7 1006.6 0.0
28/07:00pm 33.1 31.9 12.7 29 12.2 ENE 11 15 6 8 1006.5 1006.4 0.0
28/06:30pm 34.3 31.9 12.6 27 13.0 E 17 20 9 11 1006.4 1006.3 0.0
28/06:00pm 34.5 32.9 12.8 27 13.1 ESE 13 19 7 10 1006.2 1006.1 0.0
28/05:30pm 34.7 32.6 13.5 28 12.9 ESE 17 20 9 11 1006.1 1006.0 0.0
28/05:00pm 34.6 32.1 13.4 27 12.9 ESE 19 26 10 14 1006.2 1006.1 0.0
28/04:30pm 34.6 31.9 13.4 27 12.9 ESE 20 28 11 15 1006.3 1006.2 0.0
28/04:00pm 34.5 31.9 13.9 29 12.6 SE 20 28 11 15 1006.7 1006.6 0.0
28/03:30pm 34.3 31.8 14.2 29 12.3 SE 20 28 11 15 1006.9 1006.8 0.0
28/03:00pm 34.8 32.3 14.1 28 12.7 ESE 20 30 11 16 1007.3 1007.2 0.0
28/02:30pm 34.1 31.4 14.6 31 12.0 SE 22 33 12 18 1007.7 1007.6 0.0
28/02:00pm 34.3 31.8 16.2 34 11.5 SE 24 35 13 19 1008.0 1007.9 0.0
28/01:30pm 33.8 32.2 17.5 38 10.5 SE 22 32 12 17 1008.3 1008.2 0.0
28/01:00pm 33.0 31.1 16.8 38 10.3 SE 22 35 12 19 1008.7 1008.6 0.0
28/12:30pm 32.9 30.3 15.8 35 10.7 SE 24 35 13 19 1009.1 1009.0 0.0
28/12:00pm 33.0 30.8 16.8 38 10.3 SE 24 35 13 19 1009.6 1009.5 0.0
28/11:30am 32.5 30.4 17.2 40 9.7 SE 24 35 13 19 1009.9 1009.8 0.0
28/11:00am 31.7 29.6 17.2 42 9.2 SE 24 43 13 23 1010.1 1010.0 0.0
28/10:30am 31.8 29.1 15.7 37 10.0 SE 24 39 13 21 1010.2 1010.1 0.0
28/10:00am 31.7 29.0 15.6 37 10.0 SE 24 39 13 21 1010.2 1010.1 0.0
28/09:30am 31.3 28.2 15.7 39 9.7 SE 26 41 14 22 1010.2 1010.1 0.0
28/09:00am 31.3 28.8 16.1 40 9.5 SE 24 39 13 21 1010.4 1010.3 0.0
28/08:30am 30.8 28.6 16.0 40 9.2 SE 22 33 12 18 1010.3 1010.2 0.0
28/08:00am 29.8 28.5 17.3 47 7.9 SE 20 32 11 17 1010.0 1009.9 0.0
28/07:30am 30.1 28.4 17.2 46 8.2 SSE 22 33 12 18 1009.7 1009.6 0.0
28/07:00am 29.6 26.9 15.7 43 8.6 SSE 24 33 13 18 1009.2 1009.1 0.0
28/06:30am 28.0 28.0 18.1 55 6.3 S 15 24 8 13 1008.7 1008.6 0.0
28/06:00am 27.4 29.0 20.0 64 4.8 S 11 17 6 9 1008.3 1008.2 0.0
28/05:30am 27.7 29.2 22.0 71 3.8 SW 17 24 9 13 1007.9 1007.8 0.0
28/05:00am 27.6 29.9 23.4 78 2.9 SW 17 24 9 13 1007.5 1007.4 0.0
28/04:30am 27.8 30.2 24.2 81 2.5 SW 19 24 10 13 1007.1 1007.0 0.0
28/04:00am 28.1 31.3 24.3 80 2.6 WSW 15 22 8 12 1006.9 1006.8 0.0
28/03:30am 28.4 32.0 24.4 79 2.8 WSW 13 20 7 11 1006.7 1006.6 0.0
28/03:00am 28.7 31.4 23.4 73 3.6 WSW 15 20 8 11 1006.8 1006.7 0.0
28/02:30am 28.6 31.3 23.5 74 3.5 WSW 15 19 8 10 1007.1 1007.0 0.0
28/02:00am 28.5 31.3 23.6 75 3.4 WSW 15 20 8 11 1007.2 1007.1 0.0
28/01:30am 28.4 31.5 23.5 75 3.4 W 13 17 7 9 1007.5 1007.4 0.0
28/01:00am 28.5 31.5 23.4 74 3.5 W 13 19 7 10 1007.9 1007.8 0.0
28/12:30am 28.5 32.2 23.2 73 3.6 WNW 9 13 5 7 1008.2 1008.1 0.0
28/12:00am 28.8 31.5 22.8 70 4.1 WNW 13 17 7 9 1008.5 1008.4 0.0
 
Date/Time
EST
Temp
°C
App
Temp
°C
Dew
Point
°C
Rel
Hum
%
Delta-T
°C
Wind Press
QNH
hPa
Press
MSL
hPa
Rain since
9am
mm
Dir  Spd
km/h
Gust
km/h
Spd
kts
Gust
kts
27/11:30pm 28.5 31.7 23.0 72 3.8 NW 11 13 6 7 1008.7 1008.6 0.0
27/11:00pm 28.1 30.8 21.4 67 4.5 NNW 9 11 5 6 1008.9 1008.8 0.0
27/10:30pm 28.2 30.7 21.0 65 4.8 NNW 9 9 5 5 1008.9 1008.8 0.0
27/10:00pm 28.8 32.9 23.2 71 3.8 NNW 7 7 4 4 1008.7 1008.6 0.0
27/09:30pm 29.0 33.2 23.4 72 3.8 NNW 7 9 4 5 1008.6 1008.5 0.0
27/09:00pm 29.1 33.1 23.1 70 4.1 N 7 7 4 4 1008.6 1008.5 0.0
27/08:30pm 29.4 33.1 22.6 67 4.6 N 7 9 4 5 1008.4 1008.3 0.0
27/08:00pm 29.8 33.0 22.3 64 5.1 N 9 11 5 6 1008.0 1007.9 0.0
27/07:30pm 30.2 32.7 20.2 55 6.6 N 7 11 4 6 1007.5 1007.4 0.0
27/07:00pm 30.7 32.0 20.9 56 6.6 NNW 15 19 8 10 1007.1 1007.0 0.0
27/06:30pm 32.9 33.1 15.8 35 10.7 SE 9 13 5 7 1007.0 1006.9 0.0
27/06:00pm 33.3 32.9 15.3 34 11.2 SE 11 15 6 8 1006.7 1006.6 0.0
27/05:30pm 33.6 33.0 15.6 34 11.3 SE 13 19 7 10 1006.7 1006.6 0.0
27/05:00pm 33.9 33.4 15.8 33 11.4 SE 13 22 7 12 1006.6 1006.5 0.0
27/04:30pm 33.8 33.0 16.2 35 11.1 SE 15 22 8 12 1006.6 1006.5 0.0
27/04:00pm 33.6 32.2 15.6 34 11.3 SE 17 22 9 12 1006.8 1006.7 0.0
27/03:30pm 33.5 32.8 16.4 36 10.8 SE 15 20 8 11 1007.1 1007.0 0.0
27/03:00pm 33.2 32.1 17.4 39 10.1 SE 19 26 10 14 1007.5 1007.4 0.0
27/02:30pm 33.1 32.6 17.7 40 9.9 SE 17 28 9 15 1007.9 1007.8 0.0
27/02:00pm 31.5 29.7 17.0 41 9.2 SSE 22 32 12 17 1008.5 1008.4 0.0
27/01:30pm 32.0 31.0 17.5 42 9.3 SSE 19 28 10 15 1008.8 1008.7 0.0
27/01:00pm 31.1 29.8 18.1 46 8.4 SSE 22 35 12 19 1009.1 1009.0 0.0
27/12:30pm 31.1 30.3 18.5 47 8.1 SSE 20 32 11 17 1009.5 1009.4 0.0

Other formats

Comma delimited format used in spreadsheet applications
http://www.bom.gov.au/fwo/IDQ60801/IDQ60801.94254.axf

JavaScript Object Notation format (JSON) in row-major order
http://www.bom.gov.au/fwo/IDQ60801/IDQ60801.94254.json

Data quality

Most of these data are generated automatically and are frequently updated. Quality checks on data are not normally performed. It is possible for incorrect values to appear. Refer to information at About Latest Weather Observations and please check the disclaimer before using these data.